createdAt,value
2018-11-29T00:00:36.227Z,2.30
2018-11-29T00:03:06.675Z,2.10
2018-11-29T00:05:35.888Z,1.90
2018-11-29T00:08:05.119Z,2.30
2018-11-29T00:10:34.608Z,2.20
2018-11-29T00:13:04.323Z,2.20
2018-11-29T00:15:33.717Z,2.10
2018-11-29T00:18:02.992Z,1.90
2018-11-29T00:20:32.891Z,2.30
2018-11-29T00:23:02.156Z,2.20
2018-11-29T00:25:31.303Z,2.20
2018-11-29T00:28:00.459Z,2.20
2018-11-29T00:30:29.645Z,2.00
2018-11-29T00:32:58.802Z,1.70
2018-11-29T00:35:27.979Z,2.00
2018-11-29T00:37:57.150Z,2.00
2018-11-29T00:40:26.359Z,1.80
2018-11-29T00:42:55.525Z,1.80
2018-11-29T00:45:24.974Z,1.90
2018-11-29T00:47:54.174Z,2.10
2018-11-29T00:50:23.337Z,1.60
2018-11-29T00:52:52.734Z,1.90
2018-11-29T00:55:23.314Z,1.30
2018-11-29T00:57:53.097Z,1.70
2018-11-29T01:03:19.487Z,1.90
2018-11-29T01:05:48.659Z,2.00
2018-11-29T01:08:17.848Z,1.90
2018-11-29T01:10:47.051Z,1.70
2018-11-29T01:13:16.191Z,1.80
2018-11-29T01:15:45.339Z,1.70
2018-11-29T01:18:14.514Z,1.70
2018-11-29T01:20:43.672Z,1.40
2018-11-29T01:23:12.859Z,1.50
2018-11-29T01:25:42.019Z,1.70
2018-11-29T01:28:11.232Z,1.40
2018-11-29T01:30:40.440Z,1.60
2018-11-29T01:33:09.676Z,1.80
2018-11-29T01:35:38.830Z,1.50
2018-11-29T01:38:08.055Z,1.40
2018-11-29T01:40:37.266Z,1.60
2018-11-29T01:43:06.748Z,1.60
2018-11-29T01:45:35.912Z,1.80
2018-11-29T01:48:05.109Z,1.40
2018-11-29T01:50:34.313Z,1.40
2018-11-29T01:53:03.496Z,1.10
2018-11-29T01:55:32.688Z,1.00
2018-11-29T01:58:01.935Z,1.30
2018-11-29T02:00:31.155Z,1.30
2018-11-29T02:03:00.301Z,0.90
2018-11-29T02:05:29.508Z,1.40
2018-11-29T02:07:58.723Z,1.20
2018-11-29T02:10:32.020Z,1.40
2018-11-29T02:13:01.212Z,1.20
2018-11-29T02:15:30.367Z,1.00
2018-11-29T02:17:59.578Z,1.00
2018-11-29T02:20:28.749Z,1.00
2018-11-29T02:22:57.927Z,1.10
2018-11-29T02:25:27.106Z,1.20
2018-11-29T02:27:56.268Z,1.10
2018-11-29T02:30:25.567Z,0.60
2018-11-29T02:32:54.728Z,1.20
2018-11-29T02:35:23.893Z,0.90
2018-11-29T02:37:53.080Z,1.00
2018-11-29T02:40:22.323Z,1.20
2018-11-29T02:42:51.677Z,1.10
2018-11-29T02:45:23.647Z,0.40
2018-11-29T02:47:52.828Z,0.70
2018-11-29T02:50:21.989Z,1.10
2018-11-29T02:52:51.210Z,1.00
2018-11-29T02:55:20.387Z,0.70
2018-11-29T02:57:49.558Z,1.00
2018-11-29T03:00:19.747Z,0.90
2018-11-29T03:02:48.912Z,0.90
2018-11-29T03:05:18.596Z,1.00
2018-11-29T03:07:47.821Z,0.70
2018-11-29T03:10:22.483Z,0.80
2018-11-29T03:12:51.661Z,0.80
2018-11-29T03:15:21.015Z,0.60
2018-11-29T03:17:50.201Z,0.90
2018-11-29T03:20:19.357Z,0.50
2018-11-29T03:22:48.535Z,0.50
2018-11-29T03:25:17.856Z,0.20
2018-11-29T03:27:47.055Z,0.90
2018-11-29T03:30:17.789Z,0.70
2018-11-29T03:32:47.054Z,0.80
2018-11-29T03:35:16.323Z,0.50
2018-11-29T03:37:45.580Z,0.70
2018-11-29T03:40:16.550Z,0.40
2018-11-29T03:42:46.278Z,0.70
2018-11-29T03:45:16.427Z,0.60
2018-11-29T03:47:46.199Z,0.90
2018-11-29T03:50:17.689Z,0.90
2018-11-29T03:52:47.388Z,0.50
2018-11-29T03:55:16.569Z,0.40
2018-11-29T03:57:45.723Z,0.60
2018-11-29T04:03:24.975Z,1.00
2018-11-29T04:05:54.163Z,0.30
2018-11-29T04:08:23.309Z,0.40
2018-11-29T04:10:52.499Z,0.30
2018-11-29T04:13:21.651Z,0.40
2018-11-29T04:15:50.814Z,0.50
2018-11-29T04:18:20.352Z,0.30
2018-11-29T04:20:49.524Z,0.40
2018-11-29T04:23:18.684Z,0.40
2018-11-29T04:25:47.876Z,0.10
2018-11-29T04:28:17.139Z,0.40
2018-11-29T04:30:46.336Z,-0.40
2018-11-29T04:33:15.575Z,0.10
2018-11-29T04:35:44.724Z,-0.10
2018-11-29T04:38:13.884Z,-0.10
2018-11-29T04:40:43.098Z,0.10
2018-11-29T04:43:12.255Z,0.30
2018-11-29T04:46:47.475Z,0.70
2018-11-29T04:49:16.639Z,-0.10
2018-11-29T04:51:45.810Z,0.10
2018-11-29T04:54:15.012Z,-0.20
2018-11-29T04:56:44.169Z,-0.60
2018-11-29T04:59:13.316Z,-0.50
2018-11-29T05:01:42.575Z,-0.20
2018-11-29T05:04:11.753Z,-0.50
2018-11-29T05:06:40.932Z,-0.20
2018-11-29T05:09:10.844Z,0.00
2018-11-29T05:11:40.016Z,0.00
2018-11-29T05:14:10.970Z,-0.70
2018-11-29T05:16:40.145Z,0.00
2018-11-29T05:19:09.336Z,-0.50
2018-11-29T05:21:38.557Z,-0.70
2018-11-29T05:24:07.907Z,-0.10
2018-11-29T05:26:37.055Z,0.10
2018-11-29T05:29:06.387Z,0.40
2018-11-29T05:31:35.587Z,0.20
2018-11-29T05:34:04.793Z,-0.10
2018-11-29T05:36:33.932Z,0.50
2018-11-29T05:39:03.978Z,0.10
2018-11-29T05:41:33.119Z,0.20
2018-11-29T05:44:02.288Z,0.10
2018-11-29T05:46:31.467Z,-0.10
2018-11-29T05:49:00.646Z,0.00
2018-11-29T05:51:29.840Z,-0.10
2018-11-29T05:53:59.037Z,-0.10
2018-11-29T05:56:28.202Z,-0.50
2018-11-29T05:58:57.387Z,-0.30
2018-11-29T06:01:35.043Z,-0.30
2018-11-29T06:04:04.246Z,-0.50
2018-11-29T06:06:33.403Z,-1.00
2018-11-29T06:09:02.591Z,-0.80
2018-11-29T06:11:31.764Z,-0.90
2018-11-29T06:14:00.938Z,-0.40
2018-11-29T06:16:30.119Z,-0.80
2018-11-29T06:18:59.271Z,-0.90
2018-11-29T06:24:38.900Z,-1.30
2018-11-29T06:27:08.075Z,-0.70
2018-11-29T06:29:37.288Z,-0.80
2018-11-29T06:32:07.003Z,-0.40
2018-11-29T06:34:36.168Z,-0.60
2018-11-29T06:37:05.447Z,-1.00
2018-11-29T06:39:34.765Z,-0.80
2018-11-29T06:42:03.864Z,-0.70
2018-11-29T06:44:33.020Z,-0.10
2018-11-29T06:47:02.226Z,0.40
2018-11-29T06:49:31.395Z,-0.70
2018-11-29T06:52:00.546Z,1.00
2018-11-29T06:54:29.731Z,-0.40
2018-11-29T06:56:58.897Z,0.50
2018-11-29T06:59:28.060Z,-0.30
2018-11-29T07:01:57.242Z,0.30
2018-11-29T07:04:26.407Z,-0.50
2018-11-29T07:06:55.568Z,0.30
2018-11-29T07:09:24.772Z,0.50
2018-11-29T07:11:53.998Z,1.40
2018-11-29T07:14:23.163Z,1.10
2018-11-29T07:16:52.342Z,0.40
2018-11-29T07:19:21.519Z,0.60
2018-11-29T07:21:54.507Z,1.00
2018-11-29T07:24:24.761Z,0.60
2018-11-29T07:29:59.595Z,1.30
2018-11-29T07:32:29.171Z,0.70
2018-11-29T07:34:58.339Z,0.20
2018-11-29T07:37:27.565Z,-0.90
2018-11-29T07:39:56.744Z,-0.40
2018-11-29T07:42:25.921Z,-0.10
2018-11-29T07:44:55.142Z,-0.40
2018-11-29T07:47:24.334Z,-0.20
2018-11-29T07:50:03.080Z,-0.40
2018-11-29T07:52:32.237Z,-0.20
2018-11-29T07:55:01.472Z,-0.30
2018-11-29T07:57:30.735Z,-0.30
2018-11-29T07:59:59.872Z,-0.80
2018-11-29T08:02:29.109Z,-0.10
2018-11-29T08:04:58.329Z,-0.10
2018-11-29T08:07:27.504Z,0.10
2018-11-29T08:09:56.719Z,-0.90
2018-11-29T08:12:25.880Z,-0.50
2018-11-29T08:14:55.028Z,0.40
2018-11-29T08:17:24.207Z,-0.60
2018-11-29T08:19:53.423Z,-0.80
2018-11-29T08:22:22.583Z,0.20
2018-11-29T08:24:52.261Z,0.10
2018-11-29T08:27:21.414Z,0.10
2018-11-29T08:29:50.621Z,-0.40
2018-11-29T08:32:19.803Z,-0.10
2018-11-29T08:34:48.989Z,-0.10
2018-11-29T08:37:18.179Z,0.60
2018-11-29T08:39:47.355Z,0.60
2018-11-29T08:42:16.553Z,-0.20
2018-11-29T08:44:46.324Z,-0.40
2018-11-29T08:47:15.516Z,-0.30
2018-11-29T08:49:44.714Z,0.00
2018-11-29T08:52:13.911Z,-0.20
2018-11-29T08:54:43.169Z,-0.10
2018-11-29T08:57:12.335Z,0.20
2018-11-29T08:59:41.531Z,-0.10
2018-11-29T09:02:10.703Z,0.20
2018-11-29T09:04:39.915Z,-0.10
2018-11-29T09:07:09.156Z,-0.10
2018-11-29T09:09:38.311Z,0.40
2018-11-29T09:12:07.471Z,-0.10
2018-11-29T09:14:36.668Z,0.20
2018-11-29T09:17:05.861Z,0.90
2018-11-29T09:19:37.481Z,0.40
2018-11-29T09:22:04.264Z,0.50
2018-11-29T09:24:33.428Z,0.10
2018-11-29T09:27:02.649Z,0.50
2018-11-29T09:29:31.819Z,0.00
2018-11-29T09:32:01.023Z,0.60
2018-11-29T09:34:30.189Z,0.10
2018-11-29T09:36:59.331Z,0.60
2018-11-29T09:39:28.511Z,0.30
2018-11-29T09:41:57.680Z,0.10
2018-11-29T09:44:26.831Z,0.10
2018-11-29T09:46:56.179Z,0.80
2018-11-29T09:49:25.341Z,0.60
2018-11-29T09:51:54.501Z,0.50
2018-11-29T09:54:23.700Z,0.20
2018-11-29T09:56:52.844Z,-0.10
2018-11-29T09:59:22.100Z,0.50
2018-11-29T10:01:51.295Z,0.40
2018-11-29T10:04:20.543Z,0.40
2018-11-29T10:06:49.696Z,0.60
2018-11-29T10:12:22.340Z,0.90
2018-11-29T10:14:51.511Z,0.90
2018-11-29T10:17:20.682Z,0.80
2018-11-29T10:19:49.876Z,1.00
2018-11-29T10:22:19.039Z,1.10
2018-11-29T10:24:48.183Z,1.40
2018-11-29T10:33:16.490Z,1.10
2018-11-29T10:35:45.696Z,0.90
2018-11-29T10:38:14.888Z,1.00
2018-11-29T10:40:44.060Z,1.50
2018-11-29T10:43:13.283Z,1.30
2018-11-29T10:45:42.496Z,1.30
2018-11-29T10:48:14.232Z,0.90
2018-11-29T10:50:43.464Z,0.70
2018-11-29T10:53:12.640Z,2.00
2018-11-29T10:55:41.865Z,1.20
2018-11-29T10:58:11.070Z,1.00
2018-11-29T11:00:45.848Z,1.20
2018-11-29T11:03:20.416Z,1.70
2018-11-29T11:05:52.226Z,1.20
2018-11-29T11:08:21.996Z,1.50
2018-11-29T11:10:51.325Z,1.50
2018-11-29T11:13:20.491Z,1.20
2018-11-29T11:15:49.685Z,1.30
2018-11-29T11:18:19.144Z,1.30
2018-11-29T11:20:48.382Z,1.40
2018-11-29T11:23:17.544Z,1.60
2018-11-29T11:25:46.724Z,1.20
2018-11-29T11:28:15.908Z,1.90
2018-11-29T11:30:45.523Z,2.10
2018-11-29T11:33:14.718Z,2.30
2018-11-29T11:35:43.931Z,1.90
2018-11-29T11:38:13.120Z,1.60
2018-11-29T11:40:42.264Z,1.80
2018-11-29T11:43:11.434Z,1.70
2018-11-29T11:45:40.661Z,1.70
2018-11-29T11:48:09.815Z,2.10
2018-11-29T11:50:39.032Z,2.40
2018-11-29T11:53:09.409Z,2.30
2018-11-29T11:55:38.887Z,2.30
2018-11-29T11:58:09.181Z,2.50
2018-11-29T12:00:39.430Z,2.50
2018-11-29T12:03:16.391Z,2.10
2018-11-29T12:05:45.608Z,2.30
2018-11-29T12:08:14.784Z,2.20
2018-11-29T12:10:44.620Z,2.60
2018-11-29T12:13:13.788Z,3.10
2018-11-29T12:15:43.155Z,3.40
2018-11-29T12:18:13.443Z,3.40
2018-11-29T12:20:42.683Z,3.50
2018-11-29T12:23:11.851Z,3.70
2018-11-29T12:25:41.009Z,4.00
2018-11-29T12:28:10.201Z,4.00
2018-11-29T12:30:45.103Z,3.50
2018-11-29T12:33:14.302Z,2.60
2018-11-29T12:35:43.488Z,2.80
2018-11-29T12:38:12.664Z,2.60
2018-11-29T12:40:41.872Z,2.20
2018-11-29T12:43:11.074Z,2.70
2018-11-29T12:45:40.237Z,2.80
2018-11-29T12:48:09.404Z,2.80
2018-11-29T12:50:39.871Z,2.70
2018-11-29T12:53:09.395Z,2.80
2018-11-29T12:55:42.125Z,2.50
2018-11-29T12:58:11.274Z,2.70
2018-11-29T13:00:40.472Z,2.30
2018-11-29T13:03:10.092Z,2.80
2018-11-29T13:05:39.376Z,2.50
2018-11-29T13:08:09.498Z,2.70
2018-11-29T13:10:38.718Z,2.50
2018-11-29T13:13:08.232Z,2.50
2018-11-29T13:15:37.425Z,3.10
2018-11-29T13:18:08.704Z,2.90
2018-11-29T13:20:37.941Z,3.20
2018-11-29T13:23:07.457Z,2.90
2018-11-29T13:25:37.026Z,2.50
2018-11-29T13:28:07.102Z,2.90
2018-11-29T13:30:37.783Z,2.90
2018-11-29T13:33:09.272Z,2.80
2018-11-29T13:35:38.543Z,2.70
2018-11-29T13:38:13.584Z,2.30
2018-11-29T13:40:47.779Z,2.90
2018-11-29T13:43:16.980Z,2.70
2018-11-29T13:45:48.293Z,2.90
2018-11-29T13:48:17.488Z,3.10
2018-11-29T13:50:46.637Z,2.80
2018-11-29T13:53:15.908Z,3.20
2018-11-29T13:55:45.063Z,2.90
2018-11-29T13:58:14.232Z,2.90
2018-11-29T14:00:43.407Z,3.10
2018-11-29T14:03:16.259Z,3.30
2018-11-29T14:05:45.415Z,3.00
2018-11-29T14:08:14.605Z,3.00
2018-11-29T14:10:44.344Z,2.90
2018-11-29T14:13:13.507Z,3.00
2018-11-29T14:15:42.681Z,2.80
2018-11-29T14:18:11.873Z,2.50
2018-11-29T14:20:41.007Z,2.90
2018-11-29T14:23:10.199Z,2.80
2018-11-29T14:25:39.360Z,2.80
2018-11-29T14:28:09.011Z,2.50
2018-11-29T14:30:38.163Z,2.70
2018-11-29T14:33:08.054Z,2.80
2018-11-29T14:35:37.220Z,2.50
2018-11-29T14:38:06.495Z,2.70
2018-11-29T14:40:37.077Z,2.90
2018-11-29T14:43:07.605Z,2.90
2018-11-29T14:45:36.833Z,2.80
2018-11-29T14:48:06.089Z,2.70
2018-11-29T14:50:39.249Z,2.80
2018-11-29T14:53:09.626Z,2.50
2018-11-29T14:55:39.653Z,2.50
2018-11-29T14:58:12.748Z,2.40
2018-11-29T15:00:42.148Z,2.50
2018-11-29T15:03:16.378Z,2.50
2018-11-29T15:05:46.252Z,2.20
2018-11-29T15:08:15.460Z,2.60
2018-11-29T15:10:44.689Z,3.00
2018-11-29T15:13:14.173Z,2.80
2018-11-29T15:15:44.171Z,2.50
2018-11-29T15:18:13.370Z,2.40
2018-11-29T15:20:46.735Z,2.40
2018-11-29T15:23:17.971Z,2.50
2018-11-29T15:25:47.174Z,2.20
2018-11-29T15:28:16.383Z,2.70
2018-11-29T15:30:45.592Z,2.50
2018-11-29T15:33:14.786Z,2.40
2018-11-29T15:35:43.965Z,2.50
2018-11-29T15:38:13.160Z,2.50
2018-11-29T15:40:42.459Z,2.40
2018-11-29T15:43:11.650Z,2.50
2018-11-29T15:45:40.849Z,2.60
2018-11-29T15:48:10.068Z,2.50
2018-11-29T15:50:39.361Z,3.00
2018-11-29T15:53:08.592Z,2.30
2018-11-29T15:55:37.901Z,1.80
2018-11-29T15:58:07.242Z,2.10
2018-11-29T16:00:36.459Z,2.30
2018-11-29T16:03:10.013Z,2.40
2018-11-29T16:05:41.252Z,2.30
2018-11-29T16:08:08.722Z,2.30
2018-11-29T16:10:37.915Z,1.80
2018-11-29T16:13:08.334Z,2.20
2018-11-29T16:15:38.370Z,2.40
2018-11-29T16:18:07.688Z,2.20
2018-11-29T16:20:38.806Z,2.30
2018-11-29T16:23:09.515Z,1.70
2018-11-29T16:25:38.845Z,1.90
2018-11-29T16:28:09.456Z,1.80
2018-11-29T16:31:02.305Z,1.80
2018-11-29T16:33:35.052Z,1.70
2018-11-29T16:36:04.582Z,2.20
2018-11-29T16:38:33.784Z,2.30
2018-11-29T16:41:03.361Z,2.00
2018-11-29T16:43:32.614Z,2.10
2018-11-29T16:46:01.805Z,1.90
2018-11-29T16:48:31.024Z,1.70
2018-11-29T16:51:00.285Z,2.10
2018-11-29T16:53:29.497Z,2.10
2018-11-29T16:55:58.747Z,2.30
2018-11-29T16:58:30.532Z,2.20
2018-11-29T17:00:59.738Z,2.20
2018-11-29T17:03:29.369Z,2.10
2018-11-29T17:05:58.577Z,2.00
2018-11-29T17:08:27.852Z,2.30
2018-11-29T17:10:57.073Z,1.70
2018-11-29T17:13:26.392Z,1.60
2018-11-29T17:15:55.645Z,2.00
2018-11-29T17:18:24.917Z,2.20
2018-11-29T17:20:54.128Z,1.80
2018-11-29T17:23:23.341Z,1.10
2018-11-29T17:25:52.642Z,1.90
2018-11-29T17:28:21.976Z,1.10
2018-11-29T17:30:51.160Z,1.50
2018-11-29T17:33:20.393Z,1.90
2018-11-29T17:35:49.659Z,1.50
2018-11-29T17:38:18.905Z,1.60
2018-11-29T17:40:48.161Z,1.60
2018-11-29T17:43:17.468Z,1.80
2018-11-29T17:45:46.721Z,1.90
2018-11-29T17:48:15.966Z,1.60
2018-11-29T17:50:45.777Z,1.90
2018-11-29T17:53:14.977Z,1.50
2018-11-29T17:55:44.324Z,1.80
2018-11-29T17:58:16.023Z,1.60
2018-11-29T18:00:49.697Z,1.60
2018-11-29T18:03:22.543Z,1.60
2018-11-29T18:05:52.141Z,1.50
2018-11-29T18:08:21.366Z,2.00
2018-11-29T18:10:55.360Z,1.70
2018-11-29T18:13:28.353Z,1.40
2018-11-29T18:15:57.707Z,2.00
2018-11-29T18:18:26.950Z,2.10
2018-11-29T18:20:56.189Z,1.90
2018-11-29T18:23:25.465Z,1.40
2018-11-29T18:25:54.765Z,1.50
2018-11-29T18:28:23.992Z,1.60
2018-11-29T18:30:53.468Z,1.60
2018-11-29T18:33:22.702Z,1.70
2018-11-29T18:35:51.958Z,1.70
2018-11-29T18:38:21.210Z,1.60
2018-11-29T18:40:50.429Z,1.40
2018-11-29T18:43:19.660Z,1.10
2018-11-29T18:45:48.933Z,1.70
2018-11-29T18:48:18.163Z,1.70
2018-11-29T18:50:47.551Z,1.30
2018-11-29T18:53:16.883Z,1.50
2018-11-29T18:55:46.694Z,1.70
2018-11-29T18:58:16.257Z,1.60
2018-11-29T19:00:45.488Z,1.40
2018-11-29T19:03:15.748Z,1.30
2018-11-29T19:05:45.027Z,1.30
2018-11-29T19:08:14.294Z,1.30
2018-11-29T19:10:43.679Z,1.60
2018-11-29T19:13:13.949Z,1.40
2018-11-29T19:15:43.168Z,1.40
2018-11-29T19:18:12.441Z,1.30
2018-11-29T19:20:42.224Z,1.10
2018-11-29T19:23:11.483Z,1.40
2018-11-29T19:25:40.765Z,1.40
2018-11-29T19:28:11.005Z,1.30
2018-11-29T19:30:40.241Z,1.20
2018-11-29T19:36:19.358Z,1.40
2018-11-29T19:38:48.611Z,1.20
2018-11-29T19:41:19.092Z,1.00
2018-11-29T19:43:49.326Z,1.00
2018-11-29T19:46:18.555Z,0.90
2018-11-29T19:48:47.774Z,0.80
2018-11-29T19:51:17.425Z,1.10
2018-11-29T19:53:46.651Z,0.80
2018-11-29T19:56:15.883Z,0.70
2018-11-29T19:58:45.180Z,0.90
2018-11-29T20:01:14.450Z,1.10
2018-11-29T20:03:43.852Z,1.30
2018-11-29T20:06:15.416Z,1.20
2018-11-29T20:08:44.978Z,0.90
2018-11-29T20:11:14.240Z,0.90
2018-11-29T20:13:43.588Z,0.90
2018-11-29T20:16:12.967Z,0.60
2018-11-29T20:18:42.288Z,0.60
2018-11-29T20:21:12.820Z,0.80
2018-11-29T20:23:42.311Z,1.10
2018-11-29T20:26:11.924Z,0.90
2018-11-29T20:28:41.226Z,1.50
2018-11-29T20:31:11.584Z,1.10
2018-11-29T20:33:41.243Z,1.10
2018-11-29T20:36:10.569Z,0.80
2018-11-29T20:38:39.913Z,1.00
2018-11-29T20:41:15.407Z,0.60
2018-11-29T20:43:44.763Z,1.10
2018-11-29T20:46:14.279Z,0.30
2018-11-29T20:48:44.191Z,1.00
2018-11-29T20:51:13.811Z,0.80
2018-11-29T20:53:43.262Z,0.50
2018-11-29T20:56:15.523Z,0.60
2018-11-29T20:58:44.867Z,0.50
2018-11-29T21:01:14.180Z,0.60
2018-11-29T21:03:44.574Z,1.20
2018-11-29T21:06:14.783Z,0.50
2018-11-29T21:08:44.089Z,1.00
2018-11-29T21:11:13.410Z,1.00
2018-11-29T21:13:42.714Z,0.70
2018-11-29T21:16:12.646Z,1.00
2018-11-29T21:18:41.901Z,1.00
2018-11-29T21:21:11.312Z,0.60
2018-11-29T21:23:40.579Z,1.00
2018-11-29T21:26:10.043Z,0.80
2018-11-29T21:28:39.407Z,0.80
2018-11-29T21:31:08.671Z,0.30
2018-11-29T21:33:38.122Z,0.90
2018-11-29T21:36:07.466Z,0.60
2018-11-29T21:38:36.825Z,0.50
2018-11-29T21:41:06.278Z,0.40
2018-11-29T21:43:35.501Z,0.70
2018-11-29T21:46:04.737Z,0.70
2018-11-29T21:48:34.051Z,0.80
2018-11-29T21:51:03.305Z,0.40
2018-11-29T21:53:32.517Z,0.60
2018-11-29T21:56:01.790Z,0.20
2018-11-29T21:58:31.060Z,0.40
2018-11-29T22:01:01.253Z,0.70
2018-11-29T22:03:30.697Z,0.70
2018-11-29T22:05:59.890Z,0.30
2018-11-29T22:08:29.190Z,0.60
2018-11-29T22:10:58.402Z,0.30
2018-11-29T22:13:27.594Z,0.90
2018-11-29T22:15:56.886Z,0.80
2018-11-29T22:18:26.465Z,0.90
2018-11-29T22:21:02.656Z,0.90
2018-11-29T22:23:33.767Z,0.50
2018-11-29T22:26:06.059Z,0.80
2018-11-29T22:28:35.253Z,0.60
2018-11-29T22:31:04.550Z,0.70
2018-11-29T22:33:33.825Z,0.80
2018-11-29T22:36:03.050Z,0.70
2018-11-29T22:38:32.275Z,0.30
2018-11-29T22:41:01.525Z,0.30
2018-11-29T22:43:30.980Z,1.00
2018-11-29T22:46:00.037Z,0.60
2018-11-29T22:48:29.261Z,0.70
2018-11-29T22:50:58.463Z,0.80
2018-11-29T22:53:27.670Z,0.90
2018-11-29T22:55:57.837Z,0.60
2018-11-29T22:58:27.081Z,0.80
2018-11-29T23:00:56.373Z,0.80
2018-11-29T23:03:25.578Z,1.00
2018-11-29T23:05:54.770Z,1.00
2018-11-29T23:08:24.042Z,1.00
2018-11-29T23:10:53.325Z,1.00
2018-11-29T23:13:22.560Z,0.60
2018-11-29T23:15:51.865Z,0.70
2018-11-29T23:18:21.108Z,0.60
2018-11-29T23:20:50.306Z,0.80
2018-11-29T23:23:19.537Z,0.50
2018-11-29T23:25:48.843Z,0.60
2018-11-29T23:28:18.060Z,0.60
2018-11-29T23:30:47.399Z,0.80
2018-11-29T23:33:16.643Z,0.90
2018-11-29T23:35:45.895Z,0.50
2018-11-29T23:38:15.696Z,0.60
2018-11-29T23:40:44.885Z,0.80
2018-11-29T23:43:14.106Z,0.90
2018-11-29T23:45:43.333Z,0.70
2018-11-29T23:48:12.534Z,0.70
2018-11-29T23:50:41.760Z,0.50
2018-11-29T23:53:11.032Z,0.80
2018-11-29T23:55:40.228Z,0.80
2018-11-29T23:58:09.433Z,0.70
